Adams, North Carolina
Current Conditions -  °F | °C
As of 6:35 PM on Monday 20 Oct 2014 (Local Time) from KTNB Reporting Station
Moderate Rain Moderate Rain  
Wind Chill: 56°   Ceiling: 6000
Heat Index: 56°   Visibility: 10mi
Dew Point: 44°   Wind: 5mph
Humidity: 63%   Direction: 290°WNW
Pressure: 30.02"   Gusts: NA
Location:  36.2085°N, 81.6605°W
Report Text: KTNB 202235Z AUTO 29004KT 10SM RA SCT025 SCT038 BKN060 14/07 A3002 RMK AO2 T01350065
Loading
Personal Weather Stations






























Interactive Weather Map
Tropical Storm Tracking
New forecast layout! Learn more

10-Day Weather Forecast

Advertisements
Track Severe Weather on mobile